createdAt,value
2023-05-22T00:02:01.260Z,16.70
2023-05-22T00:04:30.277Z,16.60
2023-05-22T00:06:58.463Z,16.50
2023-05-22T00:09:26.657Z,16.50
2023-05-22T00:11:54.746Z,16.50
2023-05-22T00:14:22.819Z,16.40
2023-05-22T00:16:53.478Z,16.40
2023-05-22T00:19:23.254Z,16.40
2023-05-22T00:21:51.500Z,16.40
2023-05-22T00:24:19.888Z,16.40
2023-05-22T00:26:47.997Z,16.40
2023-05-22T00:29:16.095Z,16.30
2023-05-22T00:31:44.202Z,16.30
2023-05-22T00:34:13.981Z,16.20
2023-05-22T00:36:42.145Z,16.20
2023-05-22T00:39:11.502Z,16.20
2023-05-22T00:41:39.643Z,16.20
2023-05-22T00:44:08.182Z,16.20
2023-05-22T00:46:36.609Z,16.20
2023-05-22T00:49:05.704Z,16.20
2023-05-22T00:51:35.162Z,16.20
2023-05-22T00:54:03.254Z,16.20
2023-05-22T00:56:31.320Z,16.20
2023-05-22T00:58:59.692Z,16.10
2023-05-22T01:02:01.750Z,16.10
2023-05-22T01:04:33.183Z,16.00
2023-05-22T01:07:03.103Z,16.00
2023-05-22T01:09:31.548Z,16.00
2023-05-22T01:12:01.587Z,15.90
2023-05-22T01:14:34.131Z,15.90
2023-05-22T01:17:08.844Z,16.00
2023-05-22T01:20:01.689Z,16.00
2023-05-22T01:22:43.418Z,16.00
2023-05-22T01:25:21.304Z,16.00
2023-05-22T01:28:10.488Z,16.00
2023-05-22T01:30:46.124Z,16.00
2023-05-22T01:33:14.424Z,15.90
2023-05-22T01:35:42.510Z,15.90
2023-05-22T01:38:11.717Z,15.90
2023-05-22T01:40:40.075Z,15.90
2023-05-22T01:43:08.882Z,15.90
2023-05-22T01:45:36.983Z,15.90
2023-05-22T01:48:06.926Z,15.80
2023-05-22T01:50:35.034Z,15.80
2023-05-22T01:53:09.168Z,15.80
2023-05-22T01:55:43.039Z,15.80
2023-05-22T01:58:15.879Z,15.70
2023-05-22T02:00:44.289Z,15.70
2023-05-22T02:03:17.883Z,15.70
2023-05-22T02:05:46.099Z,15.60
2023-05-22T02:08:14.180Z,15.60
2023-05-22T02:10:43.479Z,15.60
2023-05-22T02:13:11.833Z,15.60
2023-05-22T02:15:39.956Z,15.50
2023-05-22T02:18:13.982Z,15.50
2023-05-22T02:20:43.603Z,15.40
2023-05-22T02:23:11.739Z,15.40
2023-05-22T02:25:39.838Z,15.40
2023-05-22T02:28:07.931Z,15.30
2023-05-22T02:30:36.055Z,15.40
2023-05-22T02:33:06.085Z,15.40
2023-05-22T02:35:35.591Z,15.30
2023-05-22T02:38:03.812Z,15.30
2023-05-22T02:40:32.678Z,15.30
2023-05-22T02:43:00.809Z,15.20
2023-05-22T02:45:29.723Z,15.20
2023-05-22T02:47:58.502Z,15.20
2023-05-22T02:50:26.590Z,15.20
2023-05-22T02:52:56.070Z,15.10
2023-05-22T02:55:24.177Z,15.10
2023-05-22T02:57:52.278Z,15.10
2023-05-22T03:00:22.455Z,15.10
2023-05-22T03:02:50.788Z,15.10
2023-05-22T03:05:19.217Z,15.10
2023-05-22T03:07:48.805Z,15.00
2023-05-22T03:10:18.661Z,15.00
2023-05-22T03:12:46.889Z,15.00
2023-05-22T03:15:15.229Z,15.00
2023-05-22T03:17:44.680Z,15.00
2023-05-22T03:20:17.211Z,15.00
2023-05-22T03:22:46.015Z,15.00
2023-05-22T03:25:14.681Z,15.10
2023-05-22T03:27:44.123Z,15.10
2023-05-22T03:30:13.177Z,15.00
2023-05-22T03:32:45.515Z,15.10
2023-05-22T03:35:16.555Z,15.10
2023-05-22T03:37:44.697Z,15.10
2023-05-22T03:40:13.413Z,15.10
2023-05-22T03:42:43.712Z,15.20
2023-05-22T03:45:12.673Z,15.20
2023-05-22T03:47:40.884Z,15.10
2023-05-22T03:50:09.967Z,15.10
2023-05-22T03:52:38.069Z,15.20
2023-05-22T03:55:07.384Z,15.20
2023-05-22T03:57:35.487Z,15.20
2023-05-22T04:00:09.786Z,15.20
2023-05-22T04:02:45.265Z,15.30
2023-05-22T04:05:14.094Z,15.30
2023-05-22T04:07:42.297Z,15.30
2023-05-22T04:10:11.003Z,15.40
2023-05-22T04:12:39.128Z,15.40
2023-05-22T04:15:10.244Z,15.50
2023-05-22T04:17:41.037Z,15.50
2023-05-22T04:20:10.073Z,15.50
2023-05-22T04:22:39.315Z,15.60
2023-05-22T04:25:08.120Z,15.60
2023-05-22T04:27:36.228Z,15.60
2023-05-22T04:30:04.656Z,15.70
2023-05-22T04:32:34.176Z,15.70
2023-05-22T04:35:02.328Z,15.80
2023-05-22T04:37:31.859Z,15.80
2023-05-22T04:40:05.884Z,15.90
2023-05-22T04:42:34.838Z,16.00
2023-05-22T04:45:04.760Z,16.00
2023-05-22T04:47:34.309Z,16.10
2023-05-22T04:50:07.957Z,16.20
2023-05-22T04:52:36.394Z,16.30
2023-05-22T04:55:06.840Z,16.50
2023-05-22T04:57:34.927Z,16.60
2023-05-22T05:00:04.993Z,16.70
2023-05-22T05:02:36.188Z,16.80
2023-05-22T05:05:04.457Z,16.90
2023-05-22T05:07:32.582Z,17.10
2023-05-22T05:10:01.000Z,17.20
2023-05-22T05:12:29.153Z,17.30
2023-05-22T05:14:57.228Z,17.50
2023-05-22T05:17:25.338Z,17.50
2023-05-22T05:19:55.239Z,17.70
2023-05-22T05:22:23.344Z,17.70
2023-05-22T05:24:51.429Z,17.90
2023-05-22T05:27:19.557Z,18.00
2023-05-22T05:29:47.850Z,18.10
2023-05-22T05:32:23.514Z,18.20
2023-05-22T05:34:56.487Z,18.30
2023-05-22T05:37:31.962Z,18.40
2023-05-22T05:40:01.894Z,18.50
2023-05-22T05:42:31.096Z,18.70
2023-05-22T05:45:00.897Z,19.00
2023-05-22T05:47:31.096Z,19.20
2023-05-22T05:50:01.111Z,19.50
2023-05-22T05:52:32.805Z,19.70
2023-05-22T05:55:03.836Z,19.90
2023-05-22T05:57:32.596Z,20.20
2023-05-22T06:00:00.758Z,20.40
2023-05-22T06:02:44.087Z,20.50
2023-05-22T06:05:36.668Z,20.70
2023-05-22T06:08:16.102Z,20.80
2023-05-22T06:10:44.235Z,21.10
2023-05-22T06:13:14.861Z,21.30
2023-05-22T06:15:43.033Z,21.10
2023-05-22T06:18:11.967Z,21.20
2023-05-22T06:20:42.145Z,21.20
2023-05-22T06:23:11.163Z,21.40
2023-05-22T06:25:40.235Z,21.50
2023-05-22T06:28:08.559Z,21.60
2023-05-22T06:30:40.426Z,21.70
2023-05-22T06:33:14.579Z,21.80
2023-05-22T06:35:44.933Z,22.00
2023-05-22T06:38:13.373Z,22.10
2023-05-22T06:40:43.476Z,22.20
2023-05-22T06:43:16.665Z,22.40
2023-05-22T06:45:52.720Z,22.60
2023-05-22T06:48:20.962Z,22.70
2023-05-22T06:51:03.317Z,22.80
2023-05-22T06:53:31.688Z,22.80
2023-05-22T06:55:59.903Z,23.00
2023-05-22T06:58:38.442Z,23.20
2023-05-22T07:01:07.885Z,23.50
2023-05-22T07:03:41.170Z,23.70
2023-05-22T07:06:38.900Z,23.90
2023-05-22T07:09:07.707Z,24.40
2023-05-22T07:11:36.681Z,24.70
2023-05-22T07:14:05.071Z,24.90
2023-05-22T07:16:33.207Z,24.80
2023-05-22T07:19:03.450Z,24.90
2023-05-22T07:21:31.986Z,25.00
2023-05-22T07:24:03.417Z,25.30
2023-05-22T07:26:31.510Z,25.60
2023-05-22T07:29:06.750Z,25.80
2023-05-22T07:31:35.513Z,25.90
2023-05-22T07:34:03.731Z,26.10
2023-05-22T07:36:31.901Z,25.70
2023-05-22T07:39:01.372Z,26.10
2023-05-22T07:41:29.602Z,26.10
2023-05-22T07:43:58.036Z,26.40
2023-05-22T07:46:31.649Z,26.30
2023-05-22T07:49:08.564Z,26.70
2023-05-22T07:51:37.842Z,26.90
2023-05-22T07:54:08.086Z,27.10
2023-05-22T07:56:40.734Z,27.40
2023-05-22T07:59:10.962Z,27.40
2023-05-22T08:01:39.056Z,27.70
2023-05-22T08:04:07.393Z,28.00
2023-05-22T08:06:36.274Z,28.20
2023-05-22T08:09:05.406Z,28.30
2023-05-22T08:11:39.060Z,28.50
2023-05-22T08:14:07.922Z,28.60
2023-05-22T08:16:36.042Z,29.00
2023-05-22T08:19:04.597Z,29.20
2023-05-22T08:21:34.628Z,29.20
2023-05-22T08:24:02.774Z,29.30
2023-05-22T08:26:32.209Z,29.70
2023-05-22T08:29:01.762Z,30.10
2023-05-22T08:31:30.068Z,29.60
2023-05-22T08:34:02.492Z,29.70
2023-05-22T08:36:31.508Z,30.10
2023-05-22T08:38:59.593Z,30.00
2023-05-22T08:41:28.100Z,30.00
2023-05-22T08:43:56.176Z,30.10
2023-05-22T08:46:28.301Z,30.10
2023-05-22T08:48:57.218Z,30.30
2023-05-22T08:51:26.611Z,30.50
2023-05-22T08:53:54.700Z,30.50
2023-05-22T08:56:22.880Z,30.60
2023-05-22T08:58:51.309Z,30.50
2023-05-22T09:01:19.476Z,30.60
2023-05-22T09:03:51.525Z,30.70
2023-05-22T09:06:19.709Z,30.50
2023-05-22T09:08:48.891Z,30.80
2023-05-22T09:11:18.841Z,30.50
2023-05-22T09:13:46.949Z,30.80
2023-05-22T09:16:15.182Z,30.80
2023-05-22T09:18:43.346Z,30.80
2023-05-22T09:21:28.714Z,31.10
2023-05-22T09:24:01.285Z,31.00
2023-05-22T09:26:29.831Z,30.90
2023-05-22T09:28:58.805Z,30.90
2023-05-22T09:31:27.683Z,31.20
2023-05-22T09:33:56.112Z,31.10
2023-05-22T09:36:31.266Z,30.80
2023-05-22T09:39:01.750Z,30.80
2023-05-22T09:41:30.430Z,31.50
2023-05-22T09:44:01.146Z,31.50
2023-05-22T09:46:30.503Z,31.50
2023-05-22T09:48:58.625Z,31.80
2023-05-22T09:51:28.044Z,31.80
2023-05-22T09:53:56.283Z,32.00
2023-05-22T09:56:37.790Z,32.10
2023-05-22T09:59:07.502Z,32.30
2023-05-22T10:01:35.597Z,32.20
2023-05-22T10:04:03.744Z,32.50
2023-05-22T10:06:34.342Z,32.60
2023-05-22T10:09:05.145Z,32.50
2023-05-22T10:11:33.422Z,32.50
2023-05-22T10:14:01.959Z,32.80
2023-05-22T10:16:30.492Z,32.60
2023-05-22T10:18:58.642Z,32.70
2023-05-22T10:21:26.931Z,32.40
2023-05-22T10:23:56.359Z,32.40
2023-05-22T10:26:24.425Z,32.30
2023-05-22T10:29:00.580Z,32.60
2023-05-22T10:31:31.108Z,32.80
2023-05-22T10:34:19.134Z,33.10
2023-05-22T10:36:53.291Z,33.30
2023-05-22T10:39:32.888Z,33.30
2023-05-22T10:42:00.933Z,33.40
2023-05-22T10:44:29.379Z,33.60
2023-05-22T10:46:57.430Z,33.60
2023-05-22T10:49:26.182Z,33.50
2023-05-22T10:51:57.348Z,33.60
2023-05-22T10:54:40.917Z,33.70
2023-05-22T10:57:13.055Z,33.80
2023-05-22T10:59:41.140Z,34.00
2023-05-22T11:02:21.215Z,34.10
2023-05-22T11:04:50.112Z,34.10
2023-05-22T11:07:18.423Z,34.10
2023-05-22T11:09:48.811Z,34.20
2023-05-22T11:12:19.506Z,34.00
2023-05-22T11:14:51.919Z,33.90
2023-05-22T11:17:22.558Z,33.90
2023-05-22T11:19:58.261Z,33.80
2023-05-22T11:22:37.390Z,33.60
2023-05-22T11:25:09.002Z,33.70
2023-05-22T11:27:37.584Z,33.60
2023-05-22T11:30:06.735Z,33.60
2023-05-22T11:32:37.166Z,33.50
2023-05-22T11:35:08.317Z,33.50
2023-05-22T11:37:39.753Z,33.30
2023-05-22T11:40:10.255Z,33.40
2023-05-22T11:42:38.492Z,33.40
2023-05-22T11:45:07.733Z,33.40
2023-05-22T11:47:35.847Z,33.40
2023-05-22T11:50:03.928Z,33.50
2023-05-22T11:52:32.920Z,33.40
2023-05-22T11:55:01.066Z,33.00
2023-05-22T11:57:31.535Z,33.30
2023-05-22T11:59:59.647Z,33.20
2023-05-22T12:02:27.838Z,32.80
2023-05-22T12:04:55.985Z,32.50
2023-05-22T12:07:24.136Z,32.20
2023-05-22T12:09:52.311Z,31.60
2023-05-22T12:12:22.578Z,31.60
2023-05-22T12:14:52.231Z,31.50
2023-05-22T12:17:20.310Z,31.90
2023-05-22T12:19:48.831Z,31.70
2023-05-22T12:22:16.907Z,31.40
2023-05-22T12:24:47.043Z,31.50
2023-05-22T12:27:15.485Z,31.70
2023-05-22T12:29:43.944Z,31.60
2023-05-22T12:32:14.117Z,31.10
2023-05-22T12:34:45.842Z,31.20
2023-05-22T12:37:21.272Z,31.10
2023-05-22T12:39:56.730Z,31.20
2023-05-22T12:42:24.885Z,31.00
2023-05-22T12:44:54.235Z,31.10
2023-05-22T12:47:23.829Z,31.20
2023-05-22T12:49:52.174Z,31.10
2023-05-22T12:52:20.310Z,31.00
2023-05-22T12:54:48.409Z,30.70
2023-05-22T12:57:17.093Z,30.80
2023-05-22T12:59:45.220Z,30.70
2023-05-22T13:02:13.264Z,30.80
2023-05-22T13:04:42.716Z,30.70
2023-05-22T13:07:10.784Z,30.80
2023-05-22T13:09:38.842Z,30.80
2023-05-22T13:12:07.796Z,30.70
2023-05-22T13:14:35.964Z,30.70
2023-05-22T13:17:04.015Z,30.80
2023-05-22T13:19:32.161Z,30.90
2023-05-22T13:22:01.702Z,31.10
2023-05-22T13:24:29.775Z,31.10
2023-05-22T13:26:57.847Z,31.10
2023-05-22T13:29:25.925Z,30.70
2023-05-22T13:31:53.997Z,30.70
2023-05-22T13:34:22.179Z,30.60
2023-05-22T13:36:50.419Z,30.60
2023-05-22T13:39:19.824Z,30.80
2023-05-22T13:41:47.897Z,31.00
2023-05-22T13:44:16.092Z,31.00
2023-05-22T13:46:44.229Z,30.90
2023-05-22T13:49:12.303Z,30.90
2023-05-22T13:51:40.390Z,30.90
2023-05-22T13:54:08.434Z,30.80
2023-05-22T13:56:37.854Z,30.60
2023-05-22T13:59:08.403Z,30.50
2023-05-22T14:01:37.482Z,30.20
2023-05-22T14:04:06.014Z,30.60
2023-05-22T14:06:34.096Z,30.40
2023-05-22T14:09:02.247Z,30.60
2023-05-22T14:11:30.490Z,30.60
2023-05-22T14:13:59.911Z,30.20
2023-05-22T14:16:27.991Z,29.90
2023-05-22T14:18:56.211Z,30.10
2023-05-22T14:21:24.309Z,30.20
2023-05-22T14:23:52.516Z,30.20
2023-05-22T14:26:21.303Z,30.30
2023-05-22T14:28:49.640Z,30.40
2023-05-22T14:31:19.106Z,30.70
2023-05-22T14:33:47.178Z,30.60
2023-05-22T14:36:15.252Z,30.40
2023-05-22T14:38:43.315Z,30.30
2023-05-22T14:41:11.732Z,30.40
2023-05-22T14:43:39.813Z,30.40
2023-05-22T14:46:07.890Z,30.40
2023-05-22T14:48:37.329Z,30.10
2023-05-22T14:51:05.575Z,30.40
2023-05-22T14:53:33.668Z,30.50
2023-05-22T14:56:01.753Z,30.70
2023-05-22T14:58:29.793Z,30.70
2023-05-22T15:00:57.859Z,30.60
2023-05-22T15:03:26.200Z,30.50
2023-05-22T15:05:55.631Z,30.60
2023-05-22T15:08:23.746Z,30.50
2023-05-22T15:10:51.826Z,30.50
2023-05-22T15:13:21.509Z,30.50
2023-05-22T15:15:49.729Z,30.40
2023-05-22T15:18:17.813Z,30.40
2023-05-22T15:20:46.020Z,30.60
2023-05-22T15:23:15.556Z,30.60
2023-05-22T15:25:44.907Z,30.80
2023-05-22T15:28:13.016Z,31.00
2023-05-22T15:30:43.623Z,30.80
2023-05-22T15:33:11.878Z,30.80
2023-05-22T15:35:40.880Z,30.80
2023-05-22T15:38:12.393Z,30.70
2023-05-22T15:40:41.950Z,30.90
2023-05-22T15:43:10.042Z,31.10
2023-05-22T15:45:38.375Z,30.90
2023-05-22T15:48:07.028Z,30.90
2023-05-22T15:50:35.101Z,30.80
2023-05-22T15:53:03.167Z,30.90
2023-05-22T15:55:31.404Z,31.10
2023-05-22T15:58:01.505Z,31.30
2023-05-22T16:00:29.667Z,31.40
2023-05-22T16:02:57.853Z,31.40
2023-05-22T16:05:26.040Z,31.70
2023-05-22T16:07:54.143Z,31.90
2023-05-22T16:10:22.207Z,31.90
2023-05-22T16:12:50.279Z,32.00
2023-05-22T16:15:19.707Z,31.90
2023-05-22T16:17:47.880Z,31.90
2023-05-22T16:20:16.034Z,32.10
2023-05-22T16:22:48.512Z,32.00
2023-05-22T16:25:17.476Z,32.20
2023-05-22T16:27:45.626Z,31.50
2023-05-22T16:30:16.913Z,31.30
2023-05-22T16:32:47.374Z,31.20
2023-05-22T16:35:16.960Z,31.70
2023-05-22T16:37:45.162Z,31.80
2023-05-22T16:40:13.587Z,31.60
2023-05-22T16:42:41.881Z,31.20
2023-05-22T16:45:10.611Z,30.70
2023-05-22T16:47:38.904Z,30.30
2023-05-22T16:50:09.837Z,30.10
2023-05-22T16:52:38.122Z,29.90
2023-05-22T16:55:07.220Z,29.60
2023-05-22T16:57:35.468Z,29.50
2023-05-22T17:00:04.015Z,29.20
2023-05-22T17:02:32.475Z,28.90
2023-05-22T17:05:00.827Z,28.80
2023-05-22T17:07:31.755Z,28.70
2023-05-22T17:09:59.870Z,28.40
2023-05-22T17:12:28.229Z,28.30
2023-05-22T17:14:56.280Z,28.10
2023-05-22T17:17:24.363Z,28.10
2023-05-22T17:19:52.790Z,28.00
2023-05-22T17:22:20.861Z,27.70
2023-05-22T17:24:50.676Z,27.70
2023-05-22T17:27:31.976Z,27.70
2023-05-22T17:30:04.639Z,27.60
2023-05-22T17:32:32.829Z,27.40
2023-05-22T17:35:01.779Z,27.20
2023-05-22T17:37:29.833Z,27.10
2023-05-22T17:39:59.347Z,26.90
2023-05-22T17:42:27.549Z,26.80
2023-05-22T17:44:55.619Z,26.70
2023-05-22T17:47:23.865Z,26.60
2023-05-22T17:49:51.946Z,26.50
2023-05-22T17:52:20.125Z,26.30
2023-05-22T17:54:49.937Z,26.20
2023-05-22T17:57:19.350Z,26.10
2023-05-22T17:59:47.410Z,26.00
2023-05-22T18:02:15.562Z,25.80
2023-05-22T18:04:43.613Z,25.70
2023-05-22T18:07:11.694Z,25.60
2023-05-22T18:09:39.747Z,25.50
2023-05-22T18:12:15.203Z,25.30
2023-05-22T18:14:53.753Z,25.20
2023-05-22T18:17:21.836Z,25.10
2023-05-22T18:19:49.906Z,25.00
2023-05-22T18:22:18.005Z,24.80
2023-05-22T18:24:46.058Z,24.60
2023-05-22T18:27:14.160Z,24.50
2023-05-22T18:29:42.208Z,24.30
2023-05-22T18:32:13.626Z,24.20
2023-05-22T18:34:42.019Z,24.10
2023-05-22T18:37:10.096Z,23.90
2023-05-22T18:39:38.362Z,23.80
2023-05-22T18:42:06.957Z,23.80
2023-05-22T18:44:35.063Z,23.60
2023-05-22T18:47:03.188Z,23.50
2023-05-22T18:49:32.645Z,23.30
2023-05-22T18:52:00.754Z,23.20
2023-05-22T18:54:28.830Z,23.10
2023-05-22T18:56:56.879Z,23.00
2023-05-22T18:59:24.995Z,22.80
2023-05-22T19:01:53.063Z,22.70
2023-05-22T19:04:21.197Z,22.60
2023-05-22T19:06:53.649Z,22.50
2023-05-22T19:09:22.246Z,22.30
2023-05-22T19:11:50.426Z,22.20
2023-05-22T19:14:18.523Z,22.10
2023-05-22T19:16:46.694Z,21.90
2023-05-22T19:19:14.995Z,21.80
2023-05-22T19:21:43.157Z,21.70
2023-05-22T19:24:12.559Z,21.60
2023-05-22T19:26:40.646Z,21.40
2023-05-22T19:29:08.710Z,21.30
2023-05-22T19:31:36.873Z,21.10
2023-05-22T19:34:05.256Z,21.00
2023-05-22T19:36:33.340Z,20.80
2023-05-22T19:39:01.444Z,20.70
2023-05-22T19:41:30.891Z,20.60
2023-05-22T19:43:58.969Z,20.60
2023-05-22T19:46:27.171Z,20.50
2023-05-22T19:48:55.329Z,20.50
2023-05-22T19:51:23.420Z,20.40
2023-05-22T19:53:51.810Z,20.30
2023-05-22T19:56:19.896Z,20.20
2023-05-22T19:58:49.339Z,20.10
2023-05-22T20:01:17.602Z,20.00
2023-05-22T20:03:46.654Z,20.00
2023-05-22T20:06:14.803Z,19.80
2023-05-22T20:08:42.905Z,19.70
2023-05-22T20:11:10.969Z,19.70
2023-05-22T20:13:39.055Z,19.60
2023-05-22T20:16:11.956Z,19.50
2023-05-22T20:18:41.516Z,19.50
2023-05-22T20:21:10.517Z,19.40
2023-05-22T20:23:39.936Z,19.30
2023-05-22T20:26:08.038Z,19.20
2023-05-22T20:28:36.164Z,19.20
2023-05-22T20:31:05.904Z,19.10
2023-05-22T20:33:35.634Z,19.00
2023-05-22T20:36:04.155Z,19.00
2023-05-22T20:38:34.809Z,18.90
2023-05-22T20:41:07.701Z,18.90
2023-05-22T20:43:37.242Z,18.90
2023-05-22T20:46:05.569Z,18.80
2023-05-22T20:48:35.044Z,18.80
2023-05-22T20:51:03.128Z,18.70
2023-05-22T20:53:31.185Z,18.60
2023-05-22T20:55:59.402Z,18.60
2023-05-22T20:58:27.809Z,18.60
2023-05-22T21:00:56.113Z,18.50
2023-05-22T21:03:25.764Z,18.50
2023-05-22T21:05:55.930Z,18.40
2023-05-22T21:08:24.018Z,18.40
2023-05-22T21:10:52.112Z,18.40
2023-05-22T21:13:20.411Z,18.30
2023-05-22T21:15:48.487Z,18.30
2023-05-22T21:18:16.640Z,18.20
2023-05-22T21:20:44.832Z,18.10
2023-05-22T21:23:14.279Z,18.10
2023-05-22T21:25:42.465Z,18.10
2023-05-22T21:28:10.699Z,18.00
2023-05-22T21:30:38.976Z,18.00
2023-05-22T21:33:07.275Z,17.90
2023-05-22T21:35:35.510Z,17.90
2023-05-22T21:38:03.639Z,17.90
2023-05-22T21:40:33.061Z,17.90
2023-05-22T21:43:01.151Z,17.80
2023-05-22T21:45:29.268Z,17.80
2023-05-22T21:47:57.411Z,17.70
2023-05-22T21:50:25.519Z,17.70
2023-05-22T21:52:53.580Z,17.70
2023-05-22T21:55:22.117Z,17.70
2023-05-22T21:57:51.572Z,17.60
2023-05-22T22:00:20.265Z,17.60
2023-05-22T22:02:48.449Z,17.60
2023-05-22T22:05:18.617Z,17.50
2023-05-22T22:07:46.755Z,17.50
2023-05-22T22:10:14.835Z,17.50
2023-05-22T22:12:42.923Z,17.40
2023-05-22T22:15:13.290Z,17.40
2023-05-22T22:17:41.595Z,17.40
2023-05-22T22:20:10.797Z,17.40
2023-05-22T22:22:38.913Z,17.40
2023-05-22T22:25:07.777Z,17.30
2023-05-22T22:27:35.820Z,17.30
2023-05-22T22:30:04.891Z,17.30
2023-05-22T22:32:34.381Z,17.30
2023-05-22T22:35:02.478Z,17.20
2023-05-22T22:37:31.197Z,17.30
2023-05-22T22:39:59.285Z,17.20
2023-05-22T22:42:27.398Z,17.20
2023-05-22T22:44:55.530Z,17.20
2023-05-22T22:47:23.629Z,17.20
2023-05-22T22:49:53.651Z,17.10
2023-05-22T22:52:21.719Z,17.10
2023-05-22T22:54:49.900Z,17.10
2023-05-22T22:57:18.097Z,17.10
2023-05-22T22:59:46.140Z,17.00
2023-05-22T23:02:14.203Z,17.00
2023-05-22T23:04:42.406Z,17.00
2023-05-22T23:07:11.931Z,17.00
2023-05-22T23:09:40.317Z,16.90
2023-05-22T23:12:09.837Z,16.90
2023-05-22T23:14:37.937Z,16.90
2023-05-22T23:17:06.153Z,16.80
2023-05-22T23:19:34.235Z,16.80
2023-05-22T23:22:02.404Z,16.80
2023-05-22T23:24:31.909Z,16.80
2023-05-22T23:26:59.974Z,16.80
2023-05-22T23:29:28.050Z,16.70
2023-05-22T23:31:56.346Z,16.70
2023-05-22T23:34:24.463Z,16.70
2023-05-22T23:36:52.514Z,16.70
2023-05-22T23:39:20.596Z,16.70
2023-05-22T23:41:54.119Z,16.70
2023-05-22T23:44:22.561Z,16.70
2023-05-22T23:46:51.044Z,16.60
2023-05-22T23:49:19.167Z,16.60
2023-05-22T23:51:47.214Z,16.60
2023-05-22T23:54:16.929Z,16.60
2023-05-22T23:56:45.029Z,16.50
2023-05-22T23:59:14.514Z,16.60
